createdAt,value
2022-11-20T00:03:36.557Z,2.26
2022-11-20T00:06:04.437Z,2.15
2022-11-20T00:08:31.920Z,2.37
2022-11-20T00:10:59.238Z,2.29
2022-11-20T00:13:27.021Z,1.94
2022-11-20T00:16:01.845Z,1.78
2022-11-20T00:18:29.602Z,1.77
2022-11-20T00:20:57.169Z,1.98
2022-11-20T00:23:24.450Z,2.33
2022-11-20T00:25:52.176Z,2.10
2022-11-20T00:28:19.458Z,2.08
2022-11-20T00:30:46.752Z,2.14
2022-11-20T00:33:14.039Z,2.03
2022-11-20T00:35:41.306Z,2.31
2022-11-20T00:38:08.629Z,1.93
2022-11-20T00:40:35.890Z,2.03
2022-11-20T00:43:03.259Z,1.99
2022-11-20T00:45:30.616Z,1.86
2022-11-20T00:47:57.918Z,1.93
2022-11-20T00:50:25.777Z,1.97
2022-11-20T00:52:53.397Z,1.79
2022-11-20T00:55:21.058Z,1.97
2022-11-20T00:57:48.347Z,1.71
2022-11-20T01:00:15.673Z,1.89
2022-11-20T01:02:42.914Z,1.63
2022-11-20T01:05:10.201Z,1.65
2022-11-20T01:07:37.510Z,1.91
2022-11-20T01:10:04.804Z,1.75
2022-11-20T01:12:32.067Z,1.75
2022-11-20T01:14:59.308Z,1.65
2022-11-20T01:17:26.596Z,1.60
2022-11-20T01:19:53.938Z,1.56
2022-11-20T01:22:21.273Z,1.62
2022-11-20T01:24:48.558Z,1.65
2022-11-20T01:27:15.863Z,1.56
2022-11-20T01:29:43.158Z,1.45
2022-11-20T01:32:10.489Z,1.57
2022-11-20T01:34:39.749Z,1.65
2022-11-20T01:37:07.443Z,1.51
2022-11-20T01:39:35.022Z,1.49
2022-11-20T01:42:07.013Z,1.70
2022-11-20T01:44:37.298Z,1.66
2022-11-20T01:47:05.069Z,1.32
2022-11-20T01:49:32.828Z,1.71
2022-11-20T01:52:00.132Z,1.73
2022-11-20T01:54:27.538Z,1.51
2022-11-20T01:56:54.810Z,1.52
2022-11-20T01:59:22.480Z,1.50
2022-11-20T02:01:49.929Z,1.44
2022-11-20T02:04:17.185Z,1.47
2022-11-20T02:06:44.510Z,1.60
2022-11-20T02:09:12.045Z,1.22
2022-11-20T02:11:39.358Z,1.40
2022-11-20T02:14:06.597Z,1.36
2022-11-20T02:16:33.846Z,1.43
2022-11-20T02:19:01.136Z,1.45
2022-11-20T02:21:28.519Z,1.46
2022-11-20T02:23:57.822Z,1.46
2022-11-20T02:26:25.175Z,1.41
2022-11-20T02:28:52.467Z,1.39
2022-11-20T02:31:19.690Z,1.29
2022-11-20T02:33:46.966Z,1.22
2022-11-20T02:36:14.238Z,1.42
2022-11-20T02:38:41.958Z,1.43
2022-11-20T02:41:09.254Z,1.39
2022-11-20T02:43:36.494Z,1.30
2022-11-20T02:46:03.770Z,1.31
2022-11-20T02:48:33.778Z,1.42
2022-11-20T02:51:01.377Z,1.60
2022-11-20T02:53:28.688Z,1.70
2022-11-20T02:55:55.962Z,1.66
2022-11-20T02:58:23.303Z,1.35
2022-11-20T03:00:50.542Z,1.54
2022-11-20T03:03:17.801Z,1.43
2022-11-20T03:05:45.057Z,1.49
2022-11-20T03:08:12.331Z,1.62
2022-11-20T03:10:39.735Z,1.50
2022-11-20T03:13:07.016Z,1.44
2022-11-20T03:15:34.292Z,1.44
2022-11-20T03:18:01.532Z,1.33
2022-11-20T03:20:28.792Z,1.29
2022-11-20T03:22:56.106Z,1.07
2022-11-20T03:25:23.854Z,1.06
2022-11-20T03:27:51.358Z,1.12
2022-11-20T03:30:18.970Z,1.25
2022-11-20T03:32:46.770Z,1.13
2022-11-20T03:35:14.240Z,1.26
2022-11-20T03:37:41.886Z,1.06
2022-11-20T03:40:20.711Z,1.00
2022-11-20T03:42:47.983Z,1.04
2022-11-20T03:45:15.286Z,1.02
2022-11-20T03:47:42.620Z,1.03
2022-11-20T03:50:09.925Z,1.01
2022-11-20T03:52:37.485Z,1.03
2022-11-20T03:55:04.957Z,0.91
2022-11-20T03:57:32.232Z,1.09
2022-11-20T03:59:59.547Z,1.22
2022-11-20T04:02:26.806Z,1.21
2022-11-20T04:04:54.185Z,1.21
2022-11-20T04:07:22.066Z,1.26
2022-11-20T04:09:49.878Z,1.38
2022-11-20T04:12:17.475Z,1.37
2022-11-20T04:14:56.779Z,1.31
2022-11-20T04:17:24.573Z,1.52
2022-11-20T04:19:51.827Z,1.76
2022-11-20T04:22:19.058Z,1.70
2022-11-20T04:24:46.342Z,1.68
2022-11-20T04:27:13.587Z,1.61
2022-11-20T04:29:40.863Z,1.66
2022-11-20T04:32:08.203Z,1.56
2022-11-20T04:34:35.443Z,1.43
2022-11-20T04:37:02.714Z,1.32
2022-11-20T04:39:29.943Z,1.39
2022-11-20T04:41:57.207Z,1.65
2022-11-20T04:44:24.481Z,1.65
2022-11-20T04:46:51.713Z,1.47
2022-11-20T04:49:19.163Z,1.38
2022-11-20T04:51:46.920Z,1.44
2022-11-20T04:54:14.467Z,1.61
2022-11-20T04:56:41.847Z,1.88
2022-11-20T04:59:09.124Z,2.20
2022-11-20T05:01:36.698Z,2.26
2022-11-20T05:04:04.037Z,2.60
2022-11-20T05:06:31.304Z,2.46
2022-11-20T05:08:59.119Z,2.71
2022-11-20T05:11:50.322Z,2.51
2022-11-20T05:14:18.817Z,2.40
2022-11-20T05:16:46.366Z,2.08
2022-11-20T05:19:13.974Z,1.77
2022-11-20T05:21:41.414Z,1.93
2022-11-20T05:24:09.177Z,2.05
2022-11-20T05:26:36.498Z,2.02
2022-11-20T05:29:10.630Z,2.34
2022-11-20T05:31:38.197Z,2.40
2022-11-20T05:34:05.969Z,2.49
2022-11-20T05:36:33.404Z,2.48
2022-11-20T05:39:01.910Z,2.34
2022-11-20T05:41:29.549Z,2.55
2022-11-20T05:43:57.327Z,2.42
2022-11-20T05:46:28.358Z,2.54
2022-11-20T05:48:56.631Z,3.15
2022-11-20T05:51:24.215Z,3.29
2022-11-20T05:53:52.526Z,3.52
2022-11-20T05:56:20.359Z,3.75
2022-11-20T05:58:47.606Z,3.76
2022-11-20T06:01:14.879Z,3.84
2022-11-20T06:03:42.135Z,4.03
2022-11-20T06:06:09.893Z,4.37
2022-11-20T06:08:37.662Z,4.37
2022-11-20T06:11:05.082Z,4.17
2022-11-20T06:13:43.659Z,4.25
2022-11-20T06:16:11.397Z,3.97
2022-11-20T06:18:38.836Z,3.85
2022-11-20T06:21:07.623Z,3.98
2022-11-20T06:23:35.184Z,4.26
2022-11-20T06:26:02.923Z,4.62
2022-11-20T06:28:33.585Z,4.91
2022-11-20T06:31:01.279Z,5.09
2022-11-20T06:33:28.609Z,5.57
2022-11-20T06:36:00.014Z,6.06
2022-11-20T06:38:30.604Z,6.32
2022-11-20T06:40:57.983Z,6.14
2022-11-20T06:43:25.494Z,5.75
2022-11-20T06:45:58.689Z,5.63
2022-11-20T06:48:26.665Z,5.06
2022-11-20T06:50:54.099Z,5.11
2022-11-20T06:53:21.979Z,4.76
2022-11-20T06:55:49.370Z,4.82
2022-11-20T06:58:17.089Z,4.48
2022-11-20T07:00:53.560Z,4.55
2022-11-20T07:03:21.344Z,4.46
2022-11-20T07:05:48.989Z,4.50
2022-11-20T07:08:16.675Z,4.61
2022-11-20T07:10:44.217Z,4.11
2022-11-20T07:13:12.060Z,4.32
2022-11-20T07:15:39.550Z,4.75
2022-11-20T07:18:07.298Z,4.80
2022-11-20T07:20:35.062Z,5.17
2022-11-20T07:23:16.571Z,5.35
2022-11-20T07:25:44.131Z,5.58
2022-11-20T07:28:11.880Z,5.81
2022-11-20T07:30:40.566Z,6.28
2022-11-20T07:33:07.938Z,6.04
2022-11-20T07:35:35.277Z,5.69
2022-11-20T07:38:03.454Z,6.08
2022-11-20T07:40:31.546Z,6.17
2022-11-20T07:42:59.091Z,5.98
2022-11-20T07:45:26.865Z,5.82
2022-11-20T07:47:59.766Z,6.06
2022-11-20T07:50:27.360Z,5.90
2022-11-20T07:52:54.859Z,5.58
2022-11-20T07:55:28.590Z,5.54
2022-11-20T07:57:55.919Z,5.82
2022-11-20T08:00:23.281Z,5.90
2022-11-20T08:02:51.041Z,5.86
2022-11-20T08:05:18.506Z,5.43
2022-11-20T08:08:01.529Z,5.62
2022-11-20T08:10:29.331Z,5.92
2022-11-20T08:12:56.983Z,5.82
2022-11-20T08:15:24.335Z,5.73
2022-11-20T08:18:23.332Z,5.56
2022-11-20T08:20:42.358Z,5.95
2022-11-20T08:23:09.663Z,6.03
2022-11-20T08:25:36.907Z,5.76
2022-11-20T08:28:11.517Z,5.86
2022-11-20T08:30:46.246Z,5.53
2022-11-20T08:33:13.591Z,5.59
2022-11-20T08:35:41.063Z,5.34
2022-11-20T08:38:08.553Z,5.70
2022-11-20T08:40:36.086Z,5.60
2022-11-20T08:43:03.860Z,5.34
2022-11-20T08:45:34.621Z,5.27
2022-11-20T08:48:03.180Z,5.73
2022-11-20T08:50:30.679Z,5.33
2022-11-20T08:52:58.497Z,5.58
2022-11-20T08:55:25.774Z,5.34
2022-11-20T08:57:53.590Z,5.49
2022-11-20T09:00:21.086Z,5.80
2022-11-20T09:02:48.439Z,5.50
2022-11-20T09:05:15.761Z,5.10
2022-11-20T09:07:43.452Z,5.24
2022-11-20T09:10:31.428Z,5.36
2022-11-20T09:13:18.980Z,5.75
2022-11-20T09:16:06.549Z,5.59
2022-11-20T09:19:20.157Z,4.77
2022-11-20T09:22:01.627Z,5.21
2022-11-20T09:24:49.166Z,5.41
2022-11-20T09:27:36.746Z,5.46
2022-11-20T09:30:24.303Z,4.76
2022-11-20T09:33:11.875Z,4.67
2022-11-20T09:35:59.457Z,4.90
2022-11-20T09:38:47.039Z,5.12
2022-11-20T09:41:34.617Z,5.11
2022-11-20T09:44:22.183Z,4.86
2022-11-20T09:47:09.750Z,5.04
2022-11-20T09:49:57.325Z,5.16
2022-11-20T09:52:44.931Z,5.04
2022-11-20T09:55:32.487Z,4.98
2022-11-20T09:58:20.050Z,4.10
2022-11-20T10:01:07.645Z,3.86
2022-11-20T10:03:55.249Z,3.76
2022-11-20T10:06:42.784Z,3.02
2022-11-20T10:09:30.357Z,2.30
2022-11-20T10:12:17.927Z,1.83
2022-11-20T10:15:05.483Z,1.99
2022-11-20T10:17:53.021Z,2.36
2022-11-20T10:20:40.579Z,2.78
2022-11-20T10:23:28.134Z,2.71
2022-11-20T10:26:15.686Z,2.43
2022-11-20T10:29:08.518Z,2.33
2022-11-20T10:31:56.488Z,1.88
2022-11-20T10:34:44.080Z,2.13
2022-11-20T10:37:33.754Z,2.55
2022-11-20T10:40:21.310Z,2.15
2022-11-20T10:43:08.892Z,2.08
2022-11-20T10:45:56.457Z,2.24
2022-11-20T10:48:44.030Z,2.16
2022-11-20T10:51:31.609Z,2.24
2022-11-20T10:54:19.265Z,2.13
2022-11-20T10:57:06.844Z,2.27
2022-11-20T10:59:54.411Z,2.23
2022-11-20T11:02:41.983Z,2.22
2022-11-20T11:05:29.544Z,2.42
2022-11-20T11:08:17.110Z,2.23
2022-11-20T11:11:04.701Z,1.92
2022-11-20T11:13:52.287Z,1.85
2022-11-20T11:16:39.873Z,1.74
2022-11-20T11:19:27.470Z,1.58
2022-11-20T11:22:15.046Z,1.65
2022-11-20T11:25:02.617Z,1.71
2022-11-20T11:27:52.185Z,1.62
2022-11-20T11:30:39.739Z,1.73
2022-11-20T11:33:27.304Z,1.54
2022-11-20T11:36:14.869Z,1.52
2022-11-20T11:39:02.419Z,1.52
2022-11-20T11:41:49.959Z,1.34
2022-11-20T11:44:39.554Z,1.23
2022-11-20T11:47:27.071Z,0.65
2022-11-20T11:50:14.606Z,0.90
2022-11-20T11:53:02.135Z,1.15
2022-11-20T11:55:49.691Z,1.46
2022-11-20T11:58:37.277Z,1.79
2022-11-20T12:01:24.891Z,11.72
2022-11-20T12:04:12.437Z,1.64
2022-11-20T12:07:00.435Z,1.51
2022-11-20T12:09:49.214Z,1.48
2022-11-20T12:12:36.797Z,4.29
2022-11-20T12:15:24.366Z,11.91
2022-11-20T12:18:12.073Z,1.64
2022-11-20T12:20:59.618Z,8.13
2022-11-20T12:23:47.198Z,20.90
2022-11-20T12:26:34.794Z,26.74
2022-11-20T12:29:22.630Z,13.02
2022-11-20T12:32:10.388Z,8.41
2022-11-20T12:34:57.970Z,4.95
2022-11-20T12:37:45.593Z,8.02
2022-11-20T12:40:33.164Z,10.27
2022-11-20T12:43:20.737Z,2.70
2022-11-20T12:46:08.322Z,2.24
2022-11-20T12:48:55.917Z,1.27
2022-11-20T12:51:43.500Z,5.08
2022-11-20T12:54:31.098Z,18.84
2022-11-20T12:57:18.703Z,31.30
2022-11-20T13:00:06.358Z,34.38
2022-11-20T13:02:53.951Z,19.53
2022-11-20T13:05:41.547Z,1.30
2022-11-20T13:08:29.124Z,14.32
2022-11-20T13:11:16.724Z,9.83
2022-11-20T13:14:04.266Z,7.32
2022-11-20T13:16:51.882Z,5.61
2022-11-20T13:19:39.495Z,5.51
2022-11-20T13:22:27.067Z,6.69
2022-11-20T13:25:16.584Z,5.18
2022-11-20T13:28:04.280Z,5.28
2022-11-20T13:30:51.842Z,6.80
2022-11-20T13:33:39.407Z,3.40
2022-11-20T13:36:27.011Z,5.48
2022-11-20T13:39:14.599Z,3.35
2022-11-20T13:42:02.207Z,3.55
2022-11-20T13:44:49.772Z,4.00
2022-11-20T13:47:37.346Z,2.78
2022-11-20T13:50:24.905Z,3.96
2022-11-20T13:53:12.608Z,3.88
2022-11-20T13:56:00.168Z,2.89
2022-11-20T13:58:47.769Z,7.73
2022-11-20T14:01:35.407Z,7.97
2022-11-20T14:04:23.368Z,3.63
2022-11-20T14:07:11.142Z,11.47
2022-11-20T14:09:58.789Z,15.42
2022-11-20T14:12:46.374Z,3.72
2022-11-20T14:15:33.976Z,8.94
2022-11-20T14:18:21.568Z,13.55
2022-11-20T14:21:09.176Z,2.74
2022-11-20T14:23:56.723Z,9.72
2022-11-20T14:26:44.337Z,1.77
2022-11-20T14:29:31.894Z,1.86
2022-11-20T14:32:19.462Z,8.68
2022-11-20T14:35:07.028Z,1.44
2022-11-20T14:37:54.610Z,1.35
2022-11-20T14:40:42.199Z,1.41
2022-11-20T14:43:29.773Z,1.96
2022-11-20T14:46:17.308Z,1.97
2022-11-20T14:49:04.870Z,3.14
2022-11-20T14:51:52.478Z,6.45
2022-11-20T14:54:40.032Z,8.88
2022-11-20T14:57:29.661Z,6.56
2022-11-20T15:00:17.230Z,3.97
2022-11-20T15:03:04.834Z,2.47
2022-11-20T15:05:52.412Z,1.74
2022-11-20T15:08:40.003Z,1.37
2022-11-20T15:11:27.574Z,1.56
2022-11-20T15:14:15.714Z,2.68
2022-11-20T15:17:03.268Z,1.57
2022-11-20T15:19:50.843Z,1.68
2022-11-20T15:22:38.422Z,1.93
2022-11-20T15:25:26.006Z,2.04
2022-11-20T15:28:13.568Z,1.88
2022-11-20T15:31:01.156Z,2.55
2022-11-20T15:33:48.713Z,2.46
2022-11-20T15:36:36.295Z,2.41
2022-11-20T15:39:23.859Z,3.41
2022-11-20T15:42:11.411Z,2.46
2022-11-20T15:44:59.010Z,2.05
2022-11-20T15:47:46.591Z,2.19
2022-11-20T15:50:34.234Z,1.97
2022-11-20T15:53:21.784Z,1.96
2022-11-20T15:56:09.358Z,1.83
2022-11-20T15:58:56.903Z,1.64
2022-11-20T16:01:44.602Z,2.12
2022-11-20T16:04:34.218Z,2.40
2022-11-20T16:07:21.812Z,1.95
2022-11-20T16:10:09.489Z,2.36
2022-11-20T16:12:57.043Z,3.11
2022-11-20T16:15:44.611Z,3.23
2022-11-20T16:18:32.196Z,5.57
2022-11-20T16:21:19.770Z,5.67
2022-11-20T16:24:07.349Z,3.49
2022-11-20T16:26:54.914Z,3.44
2022-11-20T16:29:42.478Z,3.39
2022-11-20T16:32:30.045Z,3.81
2022-11-20T16:35:17.614Z,2.99
2022-11-20T16:38:05.183Z,2.82
2022-11-20T16:40:52.730Z,2.49
2022-11-20T16:43:40.287Z,3.97
2022-11-20T16:46:27.880Z,3.19
2022-11-20T16:49:15.472Z,3.28
2022-11-20T16:52:03.115Z,2.83
2022-11-20T16:54:50.697Z,2.50
2022-11-20T16:57:38.278Z,2.45
2022-11-20T17:00:25.862Z,2.14
2022-11-20T17:03:13.398Z,2.65
2022-11-20T17:06:00.962Z,7.54
2022-11-20T17:08:48.546Z,12.93
2022-11-20T17:11:36.133Z,5.29
2022-11-20T17:14:23.911Z,5.20
2022-11-20T17:17:11.703Z,2.70
2022-11-20T17:19:59.266Z,2.48
2022-11-20T17:22:46.907Z,2.80
2022-11-20T17:25:34.453Z,3.39
2022-11-20T17:28:22.140Z,2.75
2022-11-20T17:31:09.703Z,2.58
2022-11-20T17:33:57.294Z,2.99
2022-11-20T17:36:45.490Z,2.72
2022-11-20T17:39:33.409Z,2.92
2022-11-20T17:42:20.972Z,3.66
2022-11-20T17:45:08.590Z,3.34
2022-11-20T17:47:56.153Z,3.45
2022-11-20T17:50:43.735Z,4.65
2022-11-20T17:53:31.321Z,5.68
2022-11-20T17:56:18.890Z,5.06
2022-11-20T17:59:06.473Z,7.10
2022-11-20T18:01:54.114Z,9.53
2022-11-20T18:04:41.707Z,4.00
2022-11-20T18:07:29.376Z,7.42
2022-11-20T18:10:16.959Z,7.77
2022-11-20T18:13:04.514Z,6.31
2022-11-20T18:15:52.062Z,4.59
2022-11-20T18:18:39.651Z,3.70
2022-11-20T18:21:27.197Z,10.74
2022-11-20T18:24:14.765Z,10.21
2022-11-20T18:27:02.363Z,7.28
2022-11-20T18:29:49.962Z,5.83
2022-11-20T18:32:37.526Z,2.54
2022-11-20T18:35:27.098Z,2.71
2022-11-20T18:38:14.656Z,2.45
2022-11-20T18:41:03.933Z,2.10
2022-11-20T18:43:52.612Z,2.70
2022-11-20T18:46:40.254Z,1.19
2022-11-20T18:49:28.887Z,1.35
2022-11-20T18:52:16.452Z,1.44
2022-11-20T18:55:04.071Z,1.56
2022-11-20T18:57:51.681Z,1.48
2022-11-20T19:00:39.227Z,1.82
2022-11-20T19:03:26.807Z,1.72
2022-11-20T19:06:14.351Z,3.34
2022-11-20T19:09:01.924Z,1.60
2022-11-20T19:11:49.506Z,1.62
2022-11-20T19:14:37.058Z,5.92
2022-11-20T19:17:24.645Z,3.44
2022-11-20T19:20:12.200Z,5.25
2022-11-20T19:22:59.791Z,2.00
2022-11-20T19:25:47.359Z,4.75
2022-11-20T19:28:34.934Z,13.21
2022-11-20T19:31:24.592Z,2.54
2022-11-20T19:34:12.435Z,11.64
2022-11-20T19:36:59.999Z,38.03
2022-11-20T19:39:47.583Z,33.64
2022-11-20T19:42:35.175Z,16.01
2022-11-20T19:45:22.806Z,4.17
2022-11-20T19:48:10.393Z,10.95
2022-11-20T19:50:57.979Z,14.34
2022-11-20T19:53:45.534Z,4.28
2022-11-20T19:56:33.103Z,4.13
2022-11-20T19:59:20.656Z,5.73
2022-11-20T20:02:10.334Z,13.57
2022-11-20T20:04:57.961Z,3.94
2022-11-20T20:07:45.573Z,3.14
2022-11-20T20:10:33.177Z,3.49
2022-11-20T20:13:20.767Z,3.49
2022-11-20T20:16:08.306Z,4.24
2022-11-20T20:18:57.889Z,8.94
2022-11-20T20:21:45.431Z,3.64
2022-11-20T20:24:33.001Z,8.67
2022-11-20T20:27:20.565Z,3.71
2022-11-20T20:30:08.102Z,3.77
2022-11-20T20:32:56.552Z,7.77
2022-11-20T20:35:44.262Z,4.28
2022-11-20T20:38:31.817Z,3.66
2022-11-20T20:41:19.383Z,4.44
2022-11-20T20:44:06.977Z,8.76
2022-11-20T20:46:54.530Z,8.38
2022-11-20T20:49:42.114Z,10.56
2022-11-20T20:52:29.702Z,8.75
2022-11-20T20:55:17.286Z,12.18
2022-11-20T20:58:04.918Z,9.09
2022-11-20T21:00:52.498Z,6.99
2022-11-20T21:03:40.184Z,17.69
2022-11-20T21:06:27.798Z,18.49
2022-11-20T21:09:15.468Z,22.08
2022-11-20T21:12:03.059Z,24.71
2022-11-20T21:14:50.661Z,14.97
2022-11-20T21:17:38.251Z,9.04
2022-11-20T21:20:25.873Z,14.16
2022-11-20T21:23:13.577Z,6.51
2022-11-20T21:26:01.138Z,7.84
2022-11-20T21:28:48.759Z,9.34
2022-11-20T21:31:36.387Z,6.26
2022-11-20T21:34:24.256Z,5.82
2022-11-20T21:37:11.962Z,4.42
2022-11-20T21:39:59.631Z,4.31
2022-11-20T21:42:49.182Z,4.67
2022-11-20T21:45:36.726Z,5.42
2022-11-20T21:48:24.292Z,5.14
2022-11-20T21:51:11.889Z,4.40
2022-11-20T21:53:59.447Z,4.39
2022-11-20T21:56:47.085Z,4.36
2022-11-20T21:59:34.628Z,7.94
2022-11-20T22:02:22.216Z,5.07
2022-11-20T22:05:09.775Z,4.25
2022-11-20T22:07:57.362Z,7.19
2022-11-20T22:10:44.911Z,5.26
2022-11-20T22:13:32.504Z,4.90
2022-11-20T22:16:20.091Z,5.10
2022-11-20T22:19:07.697Z,4.78
2022-11-20T22:21:55.274Z,4.64
2022-11-20T22:24:42.835Z,4.91
2022-11-20T22:27:30.390Z,4.48
2022-11-20T22:30:17.954Z,5.20
2022-11-20T22:33:10.372Z,5.22
2022-11-20T22:36:00.771Z,5.14
2022-11-20T22:38:48.344Z,4.55
2022-11-20T22:41:35.922Z,4.52
2022-11-20T22:44:23.783Z,3.62
2022-11-20T22:47:11.734Z,3.78
2022-11-20T22:49:59.310Z,3.90
2022-11-20T22:52:46.889Z,3.97
2022-11-20T22:55:34.435Z,3.82
2022-11-20T22:58:22.022Z,3.66
2022-11-20T23:01:09.566Z,3.29
2022-11-20T23:03:57.182Z,2.99
2022-11-20T23:06:44.731Z,3.25
2022-11-20T23:09:32.307Z,3.34
2022-11-20T23:12:19.875Z,3.41
2022-11-20T23:15:07.426Z,3.69
2022-11-20T23:17:54.974Z,5.48
2022-11-20T23:20:42.570Z,3.38
2022-11-20T23:23:30.111Z,3.63
2022-11-20T23:26:19.221Z,3.54
2022-11-20T23:29:06.854Z,3.65
2022-11-20T23:31:54.505Z,3.86
2022-11-20T23:34:42.075Z,3.58
2022-11-20T23:37:29.638Z,3.49
2022-11-20T23:40:17.201Z,3.44
2022-11-20T23:43:04.899Z,3.25
2022-11-20T23:45:54.449Z,3.40
2022-11-20T23:48:42.023Z,3.24
2022-11-20T23:51:29.571Z,2.98
2022-11-20T23:54:17.141Z,3.08
2022-11-20T23:57:04.674Z,3.28
2022-11-20T23:59:52.226Z,3.24
